Time;durP1;ratioP1;P1;durP2;ratioP2;P2;SDS_P1;SDS_P2;PMS_P1;PMS_P2;Temp;Humidity;BMP_temperature;BMP_pressure;BME280_temperature;BME280_humidity;BME280_pressure;Samples;Min_cycle;Max_cycle;Signal;HPM_P1;HPM_P2
2022/07/08 00:02:19;;;;;;;3.03;1.98;;;19.20;64.30;;;;;;5044563;28;20053;-81
2022/07/08 00:04:45;;;;;;;3.47;1.90;;;19.10;64.20;;;;;;5036507;28;20519;-81
2022/07/08 00:07:10;;;;;;;2.15;1.60;;;19.10;64.20;;;;;;5037211;28;20029;-81
2022/07/08 00:09:36;;;;;;;2.78;1.80;;;19.10;64.30;;;;;;5037444;28;20456;-81
2022/07/08 00:12:02;;;;;;;2.88;1.67;;;19.10;64.30;;;;;;5042378;28;20092;-81
2022/07/08 00:14:27;;;;;;;3.17;1.83;;;19.10;64.00;;;;;;5057441;28;20021;-81
2022/07/08 00:16:53;;;;;;;4.45;2.08;;;19.10;64.10;;;;;;5056134;28;20032;-81
2022/07/08 00:19:21;;;;;;;2.33;1.73;;;19.00;64.00;;;;;;5057434;28;20029;-81
2022/07/08 00:21:49;;;;;;;3.90;1.70;;;19.00;64.50;;;;;;5057551;28;20677;-81
2022/07/08 00:24:15;;;;;;;3.15;2.10;;;18.90;64.70;;;;;;5056055;28;20476;-80
2022/07/08 00:26:41;;;;;;;3.65;1.85;;;18.90;64.40;;;;;;5043124;28;20044;-80
2022/07/08 00:29:07;;;;;;;3.45;1.98;;;18.90;64.40;;;;;;5037420;28;20105;-80
2022/07/08 00:31:33;;;;;;;4.15;2.20;;;18.80;64.70;;;;;;5035990;28;20064;-81
2022/07/08 00:33:59;;;;;;;2.45;1.80;;;18.80;64.80;;;;;;5036187;28;20061;-81
2022/07/08 00:36:28;;;;;;;2.90;1.98;;;18.80;64.90;;;;;;5037025;28;20037;-81
2022/07/08 00:38:54;;;;;;;3.53;2.00;;;18.80;64.80;;;;;;5036962;28;20551;-81
2022/07/08 00:41:20;;;;;;;3.30;1.90;;;18.70;64.90;;;;;;5036465;28;20468;-81
2022/07/08 00:43:47;;;;;;;3.05;2.22;;;18.70;65.30;;;;;;5036677;28;20526;-81
2022/07/08 00:46:14;;;;;;;3.17;2.05;;;18.70;65.30;;;;;;5037081;28;20032;-81
2022/07/08 00:48:41;;;;;;;5.13;2.63;;;18.60;65.60;;;;;;5036880;28;20025;-81
2022/07/08 00:51:12;;;;;;;4.13;2.10;;;18.60;65.60;;;;;;5036182;28;20029;-81
2022/07/08 00:53:40;;;;;;;3.40;1.60;;;18.50;65.90;;;;;;5036725;28;20033;-80
2022/07/08 00:56:08;;;;;;;2.47;1.90;;;18.50;65.60;;;;;;5036607;28;20026;-80
2022/07/08 00:58:35;;;;;;;3.85;2.35;;;18.40;65.80;;;;;;5036129;28;20385;-81
2022/07/08 01:01:01;;;;;;;2.95;1.83;;;18.40;66.00;;;;;;5048098;28;20052;-81
2022/07/08 01:03:27;;;;;;;4.38;2.17;;;18.40;66.10;;;;;;5053697;28;20094;-81
2022/07/08 01:05:52;;;;;;;2.40;1.88;;;18.40;66.00;;;;;;5052326;28;20538;-80
2022/07/08 01:08:19;;;;;;;2.72;1.88;;;18.40;65.70;;;;;;5036577;28;20017;-81
2022/07/08 01:10:44;;;;;;;2.97;1.92;;;18.40;65.90;;;;;;5051868;28;20025;-80
2022/07/08 01:13:10;;;;;;;5.18;2.33;;;18.30;65.70;;;;;;5036386;28;20399;-81
2022/07/08 01:15:36;;;;;;;4.75;2.40;;;18.30;66.00;;;;;;5034867;28;20056;-81
2022/07/08 01:18:01;;;;;;;4.18;2.30;;;18.20;66.20;;;;;;5047885;28;20812;-81
2022/07/08 01:20:31;;;;;;;2.92;2.13;;;18.20;66.70;;;;;;5056216;28;20017;-81
2022/07/08 01:22:57;;;;;;;3.35;2.22;;;18.10;66.90;;;;;;5035898;28;20025;-81
2022/07/08 01:25:23;;;;;;;4.15;2.28;;;18.10;66.80;;;;;;5044293;28;20029;-81
2022/07/08 01:27:52;;;;;;;6.70;2.85;;;18.10;67.20;;;;;;5036070;28;20053;-81
2022/07/08 01:30:18;;;;;;;5.35;2.35;;;18.00;66.90;;;;;;5035988;28;20033;-81
2022/07/08 01:32:44;;;;;;;3.65;2.25;;;18.00;67.20;;;;;;5035916;28;20021;-81
2022/07/08 01:35:10;;;;;;;6.32;2.40;;;18.00;67.00;;;;;;5035583;28;20036;-81
2022/07/08 01:37:36;;;;;;;2.90;1.92;;;18.00;67.00;;;;;;5035744;28;20073;-81
2022/07/08 01:40:03;;;;;;;4.15;2.00;;;17.90;67.10;;;;;;5035759;28;20508;-80
2022/07/08 01:42:28;;;;;;;4.88;2.83;;;17.90;67.30;;;;;;5035765;28;20557;-80
2022/07/08 01:44:56;;;;;;;4.32;2.80;;;17.90;67.50;;;;;;5035876;28;20029;-80
2022/07/08 01:47:22;;;;;;;3.42;2.22;;;17.80;67.40;;;;;;5043975;28;20029;-80
2022/07/08 01:49:48;;;;;;;3.10;2.17;;;17.80;67.70;;;;;;5054505;28;20040;-81
2022/07/08 01:52:13;;;;;;;7.35;2.55;;;17.80;67.70;;;;;;5035917;28;20063;-81
2022/07/08 01:54:39;;;;;;;4.70;3.35;;;17.70;67.80;;;;;;5035477;28;20042;-81
2022/07/08 01:57:13;;;;;;;3.33;2.08;;;17.60;68.30;;;;;;5047795;28;20089;-80
2022/07/08 01:59:43;;;;;;;3.83;2.25;;;17.60;68.20;;;;;;5051520;28;20026;-80
2022/07/08 02:02:12;;;;;;;5.90;2.83;;;17.60;68.10;;;;;;5053452;28;20037;-80
2022/07/08 02:04:38;;;;;;;4.00;2.33;;;17.60;68.00;;;;;;5055364;28;20033;-80
2022/07/08 02:07:04;;;;;;;3.67;2.42;;;17.40;68.50;;;;;;5055351;28;20032;-81
2022/07/08 02:09:30;;;;;;;5.13;2.20;;;17.50;68.40;;;;;;5038116;28;20069;-81
2022/07/08 02:14:41;;;;;;;4.30;2.28;;;17.30;68.80;;;;;;5035334;28;20060;-80
2022/07/08 02:17:07;;;;;;;3.88;2.60;;;17.30;68.30;;;;;;5039437;28;20479;-80
2022/07/08 02:19:33;;;;;;;3.30;2.63;;;17.30;68.40;;;;;;5054190;28;20119;-80
2022/07/08 02:21:59;;;;;;;3.70;2.42;;;17.30;68.50;;;;;;5055136;28;20021;-80
2022/07/08 02:24:35;;;;;;;;;;;;;;;;;;;;;
2022/07/08 02:27:01;;;;;;;4.82;2.70;;;17.30;68.20;;;;;;5034705;28;20021;-80
2022/07/08 02:29:27;;;;;;;4.80;2.15;;;17.30;68.20;;;;;;5034218;28;20026;-80
2022/07/08 02:31:53;;;;;;;3.63;2.22;;;17.20;68.70;;;;;;5035071;28;20025;-80
2022/07/08 02:34:18;;;;;;;4.20;2.65;;;17.20;68.60;;;;;;5034965;28;20498;-80
2022/07/08 02:36:44;;;;;;;3.42;2.33;;;17.10;68.80;;;;;;5035087;28;20100;-80
2022/07/08 02:39:12;;;;;;;4.47;2.65;;;17.10;68.40;;;;;;5035135;28;20052;-80
2022/07/08 02:41:56;;;;;;;6.82;3.20;;;17.00;68.90;;;;;;5035125;28;20130;-80
2022/07/08 02:44:21;;;;;;;4.88;2.45;;;17.00;69.40;;;;;;5034508;28;20029;-80
2022/07/08 02:46:47;;;;;;;3.63;2.85;;;17.00;69.50;;;;;;5034896;28;20040;-80
2022/07/08 02:49:13;;;;;;;3.85;2.75;;;17.00;69.20;;;;;;5034913;28;20041;-80
2022/07/08 02:51:39;;;;;;;3.85;2.72;;;17.10;68.90;;;;;;5035040;28;20057;-80
2022/07/08 02:54:05;;;;;;;4.30;2.97;;;17.00;68.80;;;;;;5035043;28;20372;-80
2022/07/08 02:56:32;;;;;;;4.60;3.25;;;17.10;69.10;;;;;;5034978;28;20026;-80
2022/07/08 02:59:00;;;;;;;5.68;2.92;;;17.00;69.10;;;;;;5050555;28;20025;-80
2022/07/08 03:01:26;;;;;;;4.55;3.20;;;16.90;69.40;;;;;;5052011;28;20191;-80
2022/07/08 03:03:52;;;;;;;4.80;2.97;;;16.90;69.80;;;;;;5053478;28;20053;-80
2022/07/08 03:06:18;;;;;;;4.43;3.10;;;16.80;69.40;;;;;;5040596;28;20029;-80
2022/07/08 03:08:43;;;;;;;3.85;2.90;;;16.80;69.40;;;;;;5034840;28;20029;-80
2022/07/08 03:11:09;;;;;;;6.90;2.75;;;16.90;69.30;;;;;;5034639;28;20402;-80
2022/07/08 03:13:38;;;;;;;5.20;2.90;;;16.90;69.00;;;;;;5035764;28;20040;-81
2022/07/08 03:16:09;;;;;;;5.38;2.88;;;16.90;69.10;;;;;;5037411;28;20033;-80
2022/07/08 03:18:35;;;;;;;11.95;3.65;;;16.90;68.90;;;;;;5053749;28;20118;-80
2022/07/08 03:21:03;;;;;;;4.15;2.70;;;16.90;69.00;;;;;;5057086;28;20067;-80
2022/07/08 03:23:32;;;;;;;4.53;2.78;;;16.90;69.20;;;;;;5058399;28;20020;-80
2022/07/08 03:25:57;;;;;;;4.45;3.05;;;16.90;69.20;;;;;;5056971;28;20025;-80
2022/07/08 03:28:23;;;;;;;5.68;3.00;;;16.80;69.40;;;;;;5053062;28;20037;-80
2022/07/08 03:30:50;;;;;;;7.03;2.88;;;16.80;69.50;;;;;;5038239;28;20040;-81
2022/07/08 03:33:15;;;;;;;4.70;3.20;;;16.80;69.70;;;;;;5038268;28;20025;-80
2022/07/08 03:35:41;;;;;;;5.07;3.45;;;16.80;69.70;;;;;;5045045;28;20037;-81
2022/07/08 03:38:07;;;;;;;7.00;3.22;;;16.80;69.50;;;;;;5055735;28;20025;-80
2022/07/08 03:43:16;;;;;;;5.30;2.83;;;16.70;69.60;;;;;;5038086;28;20037;-80
2022/07/08 03:45:42;;;;;;;8.40;3.30;;;16.80;69.40;;;;;;5036920;28;20025;-80
2022/07/08 03:48:08;;;;;;;4.70;2.92;;;16.70;69.00;;;;;;5037748;28;20032;-81
2022/07/08 03:50:33;;;;;;;6.13;3.35;;;16.70;69.10;;;;;;5037998;28;20037;-80
2022/07/08 03:52:59;;;;;;;4.82;2.90;;;16.70;69.20;;;;;;5037954;28;20480;-80
2022/07/08 03:55:25;;;;;;;6.38;2.97;;;16.60;69.20;;;;;;5043226;28;20042;-80
2022/07/08 03:57:52;;;;;;;5.30;3.40;;;16.60;69.30;;;;;;5056309;28;20040;-80
2022/07/08 04:00:19;;;;;;;5.38;3.78;;;16.60;68.90;;;;;;5055459;28;20098;-81
2022/07/08 04:02:46;;;;;;;5.72;3.10;;;16.50;69.10;;;;;;5052146;28;20049;-81
2022/07/08 04:05:12;;;;;;;7.60;3.72;;;16.50;69.30;;;;;;5037849;28;20034;-81
2022/07/08 04:07:38;;;;;;;4.30;3.10;;;16.40;69.80;;;;;;5037566;28;20025;-80
2022/07/08 04:10:04;;;;;;;9.38;4.43;;;16.30;69.70;;;;;;5036185;28;20033;-81
2022/07/08 04:12:30;;;;;;;5.38;4.22;;;16.30;69.80;;;;;;5036164;28;20160;-81
2022/07/08 04:14:56;;;;;;;7.85;3.92;;;16.30;70.10;;;;;;5037218;28;20104;-81
2022/07/08 04:17:21;;;;;;;6.93;3.85;;;16.30;70.10;;;;;;5043689;28;20042;-81
2022/07/08 04:19:47;;;;;;;5.20;3.15;;;16.30;70.30;;;;;;5055891;28;20773;-80
2022/07/08 04:22:13;;;;;;;6.55;3.42;;;16.30;70.10;;;;;;5042505;28;20496;-81
2022/07/08 04:24:38;;;;;;;7.25;4.45;;;16.30;70.10;;;;;;5036691;28;20492;-80
2022/07/08 04:27:04;;;;;;;7.10;3.70;;;16.30;70.10;;;;;;5035630;28;20089;-81
2022/07/08 04:29:30;;;;;;;7.05;4.07;;;16.30;70.20;;;;;;5036951;28;20041;-80
2022/07/08 04:31:55;;;;;;;6.53;4.05;;;16.30;69.80;;;;;;5048483;28;20029;-80
2022/07/08 04:34:21;;;;;;;7.22;4.60;;;16.30;70.00;;;;;;5056949;28;20029;-80
2022/07/08 04:36:47;;;;;;;9.68;4.10;;;16.30;70.10;;;;;;5054179;28;20135;-81
2022/07/08 04:39:12;;;;;;;6.88;4.20;;;16.30;70.20;;;;;;5057009;28;20052;-81
2022/07/08 04:41:38;;;;;;;6.68;3.53;;;16.30;70.30;;;;;;5057189;28;20025;-82
2022/07/08 04:44:04;;;;;;;7.72;4.60;;;16.30;70.70;;;;;;5037129;28;20033;-83
2022/07/08 04:46:29;;;;;;;10.57;4.45;;;16.30;70.10;;;;;;5036776;28;20040;-85
2022/07/08 04:48:55;;;;;;;6.97;4.28;;;16.30;70.50;;;;;;5036601;28;20033;-81
2022/07/08 04:51:22;;;;;;;5.32;4.03;;;16.40;70.10;;;;;;5035490;28;20039;-84
2022/07/08 04:53:47;;;;;;;5.65;3.80;;;16.40;70.20;;;;;;5035595;28;20033;-84
2022/07/08 04:56:13;;;;;;;8.52;4.88;;;16.40;70.40;;;;;;5035614;28;20079;-84
2022/07/08 04:58:38;;;;;;;5.47;3.83;;;16.30;70.50;;;;;;5042133;28;20033;-84
2022/07/08 05:01:04;;;;;;;7.18;4.68;;;16.30;70.60;;;;;;5048673;28;20021;-84
2022/07/08 05:03:30;;;;;;;6.57;4.22;;;16.30;70.50;;;;;;5045464;28;20504;-84
2022/07/08 05:05:56;;;;;;;6.80;4.13;;;16.30;70.60;;;;;;5042768;28;20033;-83
2022/07/08 05:08:21;;;;;;;6.45;4.15;;;16.30;71.30;;;;;;5051134;28;20024;-91
2022/07/08 05:10:48;;;;;;;8.10;4.63;;;16.30;70.90;;;;;;5051006;28;20045;-86
2022/07/08 05:13:14;;;;;;;7.20;4.45;;;16.30;71.10;;;;;;5055522;28;20499;-89
2022/07/08 05:15:40;;;;;;;6.85;4.03;;;16.30;71.20;;;;;;5051046;28;20038;-86
2022/07/08 05:18:06;;;;;;;6.53;3.88;;;16.30;71.10;;;;;;5041222;28;20085;-86
2022/07/08 05:20:32;;;;;;;6.15;3.88;;;16.30;71.00;;;;;;5035046;28;20459;-87
2022/07/08 05:22:57;;;;;;;6.90;4.00;;;16.30;70.90;;;;;;5040338;28;20112;-86
2022/07/08 05:25:23;;;;;;;6.78;4.28;;;16.40;71.20;;;;;;5054957;28;20072;-86
2022/07/08 05:27:49;;;;;;;5.10;3.65;;;16.30;70.90;;;;;;5054533;28;20036;-87
2022/07/08 05:30:15;;;;;;;6.78;3.50;;;16.30;71.10;;;;;;5038966;28;20029;-86
2022/07/08 05:32:41;;;;;;;5.13;3.50;;;16.40;71.50;;;;;;5034347;28;20514;-86
2022/07/08 05:35:07;;;;;;;6.72;3.70;;;16.30;71.50;;;;;;5035903;28;20051;-86
2022/07/08 05:37:36;;;;;;;5.75;3.05;;;16.40;71.00;;;;;;5045084;28;20289;-86
2022/07/08 05:40:02;;;;;;;5.03;2.97;;;16.40;71.20;;;;;;5054087;28;20024;-86
2022/07/08 05:42:28;;;;;;;4.18;3.38;;;16.40;72.60;;;;;;5051929;28;20093;-87
2022/07/08 05:44:53;;;;;;;6.78;3.00;;;16.50;72.50;;;;;;5035560;28;20527;-85
2022/07/08 05:47:19;;;;;;;7.25;2.97;;;16.50;71.90;;;;;;5035376;28;20490;-85
2022/07/08 05:49:45;;;;;;;6.10;3.08;;;16.60;71.80;;;;;;5053695;28;20044;-87
2022/07/08 05:52:11;;;;;;;3.33;2.80;;;16.60;71.80;;;;;;5054348;28;20599;-88
2022/07/08 05:54:38;;;;;;;6.03;2.88;;;16.70;71.80;;;;;;5053877;28;20048;-85
2022/07/08 05:57:04;;;;;;;3.22;2.60;;;16.70;71.80;;;;;;5038077;28;20029;-91
2022/07/08 05:59:29;;;;;;;3.10;2.55;;;16.70;71.90;;;;;;5040422;28;20048;-85
2022/07/08 06:01:56;;;;;;;6.78;2.92;;;16.80;71.60;;;;;;5054339;28;20025;-85
2022/07/08 06:04:21;;;;;;;3.58;2.63;;;16.80;71.20;;;;;;5054559;28;20392;-86
2022/07/08 06:06:49;;;;;;;3.53;2.45;;;16.80;72.10;;;;;;5054017;28;20056;-87
2022/07/08 06:09:14;;;;;;;7.03;2.75;;;16.90;71.90;;;;;;5044616;28;20029;-86
2022/07/08 06:11:40;;;;;;;3.95;2.42;;;16.90;71.50;;;;;;5043248;28;20029;-82
2022/07/08 06:14:06;;;;;;;5.40;2.90;;;16.90;72.00;;;;;;5042900;28;20090;-87
2022/07/08 06:16:32;;;;;;;3.38;2.22;;;16.90;71.70;;;;;;5039847;28;20028;-90
2022/07/08 06:18:58;;;;;;;3.75;2.78;;;16.90;71.40;;;;;;5043790;28;20022;-83
2022/07/08 06:21:23;;;;;;;2.38;1.98;;;17.00;71.20;;;;;;5038884;28;20025;-84
2022/07/08 06:23:49;;;;;;;5.97;2.88;;;17.00;71.70;;;;;;5044726;28;20033;-85
2022/07/08 06:26:14;;;;;;;5.75;2.25;;;17.00;71.70;;;;;;5034137;28;20479;-83
2022/07/08 06:28:40;;;;;;;3.20;2.20;;;17.10;71.50;;;;;;5038004;28;20134;-83
2022/07/08 06:31:06;;;;;;;6.53;2.28;;;17.20;71.50;;;;;;5052930;28;20021;-83
2022/07/08 06:33:32;;;;;;;3.67;2.10;;;17.20;71.60;;;;;;5046824;28;20033;-86
2022/07/08 06:35:58;;;;;;;3.08;2.33;;;17.20;71.60;;;;;;5039795;28;20084;-83
2022/07/08 06:38:23;;;;;;;2.13;1.83;;;17.20;71.20;;;;;;5036944;28;20029;-83
2022/07/08 06:40:49;;;;;;;4.18;2.50;;;17.30;71.00;;;;;;5037457;28;20614;-83
2022/07/08 06:43:15;;;;;;;3.10;2.10;;;17.30;71.30;;;;;;5040185;28;20407;-88
2022/07/08 06:45:40;;;;;;;3.38;2.17;;;17.30;71.20;;;;;;5035004;28;20436;-85
2022/07/08 06:48:06;;;;;;;2.85;1.90;;;17.40;70.90;;;;;;5041577;28;20025;-84
2022/07/08 06:50:32;;;;;;;3.47;2.08;;;17.50;70.70;;;;;;5046796;28;20029;-84
2022/07/08 06:52:57;;;;;;;2.50;2.10;;;17.50;71.00;;;;;;5045048;28;20032;-83
2022/07/08 06:55:23;;;;;;;2.80;2.50;;;17.60;70.90;;;;;;5046605;28;20037;-84
2022/07/08 06:57:49;;;;;;;4.03;2.13;;;17.70;70.80;;;;;;5053668;28;20024;-85
2022/07/08 07:00:16;;;;;;;2.55;1.88;;;17.70;70.70;;;;;;5053642;28;20029;-84
2022/07/08 07:02:42;;;;;;;2.60;1.80;;;17.70;70.30;;;;;;5068791;28;20045;-85
2022/07/08 07:05:08;;;;;;;2.25;1.67;;;17.80;69.80;;;;;;5058161;28;20039;-84
2022/07/08 07:07:34;;;;;;;4.30;1.70;;;17.80;69.90;;;;;;5055386;28;20036;-84
2022/07/08 07:09:59;;;;;;;2.72;2.15;;;17.90;69.60;;;;;;5057497;28;20039;-83
2022/07/08 07:12:25;;;;;;;2.35;1.70;;;18.00;69.50;;;;;;5057531;28;20038;-85
2022/07/08 07:14:51;;;;;;;2.75;1.45;;;18.00;69.20;;;;;;5045684;28;20041;-84
2022/07/08 07:17:21;;;;;;;2.33;1.60;;;18.10;69.00;;;;;;5054672;28;20029;-83
2022/07/08 07:19:48;;;;;;;1.85;1.20;;;18.20;69.00;;;;;;5051930;28;20122;-88
2022/07/08 07:22:16;;;;;;;5.88;1.75;;;18.20;68.60;;;;;;5058247;28;20036;-84
2022/07/08 07:24:42;;;;;;;2.22;1.45;;;18.30;68.20;;;;;;5050984;28;20519;-81
2022/07/08 07:27:08;;;;;;;4.65;2.10;;;18.50;67.50;;;;;;5046285;28;20029;-83
2022/07/08 07:29:33;;;;;;;2.72;1.75;;;18.60;67.00;;;;;;5043177;28;20417;-83
2022/07/08 07:31:59;;;;;;;3.22;1.48;;;18.80;66.80;;;;;;5044214;28;20590;-83
2022/07/08 07:34:25;;;;;;;2.67;1.48;;;19.00;66.60;;;;;;5047374;28;20075;-83
2022/07/08 07:36:51;;;;;;;3.03;1.40;;;19.30;65.20;;;;;;5055496;28;20147;-83
2022/07/08 07:39:17;;;;;;;3.42;1.38;;;20.20;60.90;;;;;;5057696;28;20056;-83
2022/07/08 07:41:43;;;;;;;3.47;1.35;;;21.40;59.10;;;;;;5056403;28;20029;-83
2022/07/08 07:44:09;;;;;;;2.42;0.82;;;23.70;53.50;;;;;;5056264;28;20538;-82
2022/07/08 07:46:34;;;;;;;2.38;0.90;;;27.20;45.00;;;;;;5050863;28;20021;-82
2022/07/08 07:49:20;;;;;;;3.50;0.98;;;30.10;38.50;;;;;;5048148;28;20057;-83
2022/07/08 07:51:46;;;;;;;2.13;0.80;;;32.50;32.20;;;;;;5039609;28;20460;-85
2022/07/08 07:54:30;;;;;;;2.65;0.70;;;34.00;32.30;;;;;;5040967;28;20115;-86
2022/07/08 07:56:59;;;;;;;3.05;0.80;;;35.60;29.50;;;;;;5049089;28;20021;-87
2022/07/08 07:59:27;;;;;;;3.63;0.80;;;36.50;27.70;;;;;;5045869;28;20120;-86
2022/07/08 08:01:56;;;;;;;2.90;0.70;;;37.20;26.60;;;;;;5055262;28;20050;-86
2022/07/08 08:04:22;;;;;;;1.63;0.50;;;37.70;25.40;;;;;;5055889;28;20029;-86
2022/07/08 08:06:47;;;;;;;2.95;0.68;;;38.30;25.60;;;;;;5055073;28;20025;-86
2022/07/08 08:09:31;;;;;;;3.00;0.80;;;38.70;25.20;;;;;;5052158;28;20037;-86
2022/07/08 08:12:04;;;;;;;2.58;0.52;;;39.00;23.60;;;;;;5048490;28;20113;-86
2022/07/08 08:14:36;;;;;;;2.80;0.63;;;39.40;23.80;;;;;;5055963;28;20029;-86
2022/07/08 08:17:04;;;;;;;2.55;0.52;;;39.70;22.80;;;;;;5056826;28;20052;-87
2022/07/08 08:19:31;;;;;;;2.88;0.50;;;39.90;22.80;;;;;;5054828;28;20439;-86
2022/07/08 08:22:04;;;;;;;3.78;0.60;;;40.30;22.60;;;;;;5054703;28;20025;-85
2022/07/08 08:24:42;;;;;;;1.63;0.50;;;40.40;23.00;;;;;;5051079;28;20056;-86
2022/07/08 08:27:17;;;;;;;5.50;0.77;;;40.70;22.30;;;;;;5051952;28;20061;-85
2022/07/08 08:29:42;;;;;;;2.72;0.95;;;40.80;22.00;;;;;;5039010;28;20048;-86
2022/07/08 08:32:08;;;;;;;1.83;1.02;;;40.90;21.70;;;;;;5036892;28;20030;-86
2022/07/08 08:34:40;;;;;;;2.83;0.82;;;40.90;22.10;;;;;;5036733;28;20057;-86
2022/07/08 08:37:15;;;;;;;2.15;0.70;;;41.00;21.00;;;;;;5035773;28;20026;-86
2022/07/08 08:39:40;;;;;;;2.08;0.68;;;40.80;20.90;;;;;;5035750;28;20075;-86
2022/07/08 08:42:10;;;;;;;3.28;0.70;;;40.80;21.00;;;;;;5035249;28;20484;-86
2022/07/08 08:44:39;;;;;;;3.90;0.65;;;41.20;20.90;;;;;;5052074;28;20025;-86
2022/07/08 08:47:13;;;;;;;2.70;0.93;;;40.90;20.80;;;;;;5056217;28;20029;-86
2022/07/08 08:49:43;;;;;;;4.05;0.80;;;41.00;19.80;;;;;;5055580;28;20029;-87
2022/07/08 08:52:25;;;;;;;2.35;0.77;;;41.10;20.50;;;;;;5037453;28;20025;-86
2022/07/08 08:55:06;;;;;;;2.95;0.93;;;41.30;20.10;;;;;;5036651;28;20033;-86
2022/07/08 08:58:09;;;;;;;2.22;0.68;;;41.30;20.00;;;;;;5036482;28;20026;-88
2022/07/08 09:01:15;;;;;;;5.10;1.00;;;41.00;18.90;;;;;;5058542;28;20438;-87
2022/07/08 09:03:45;;;;;;;2.80;0.70;;;41.00;19.40;;;;;;5054825;28;20059;-86
2022/07/08 09:06:17;;;;;;;4.35;0.60;;;39.90;21.20;;;;;;5050299;28;20033;-88
2022/07/08 09:08:59;;;;;;;2.40;0.70;;;40.40;20.70;;;;;;5035135;28;20052;-86
2022/07/08 09:11:27;;;;;;;3.20;0.88;;;40.80;20.60;;;;;;5038913;28;20034;-86
2022/07/08 09:14:20;;;;;;;3.88;1.10;;;41.10;20.50;;;;;;5034904;28;20033;-86
2022/07/08 09:17:21;;;;;;;2.15;0.82;;;41.30;20.60;;;;;;5035903;28;20044;-86
2022/07/08 09:20:23;;;;;;;;;;;;;;;;;;;;;
2022/07/08 09:22:51;;;;;;;2.33;0.73;;;41.40;20.20;;;;;;5042179;28;20037;-87
2022/07/08 09:25:25;;;;;;;2.95;0.75;;;41.70;20.50;;;;;;5034536;28;20025;-86
2022/07/08 09:27:58;;;;;;;1.38;0.50;;;41.80;20.00;;;;;;5035501;28;20036;-86
2022/07/08 09:30:30;;;;;;;2.30;0.77;;;41.90;19.60;;;;;;5038535;28;20040;-86
2022/07/08 09:33:08;;;;;;;2.28;0.70;;;42.10;20.00;;;;;;5055394;28;20033;-86
2022/07/08 09:35:39;;;;;;;4.63;0.82;;;42.20;19.80;;;;;;5054491;28;20112;-86
2022/07/08 09:38:21;;;;;;;4.72;0.98;;;42.20;20.30;;;;;;5039069;28;20034;-86
2022/07/08 09:41:22;;;;;;;;;;;;;;;;;;;;;
2022/07/08 09:47:33;;;;;;;3.28;1.65;;;42.40;19.90;;;;;;5040348;28;20033;-86
2022/07/08 09:50:04;;;;;;;2.65;1.08;;;42.10;20.10;;;;;;5029304;28;20454;-85
2022/07/08 09:52:38;;;;;;;3.42;0.80;;;42.00;21.50;;;;;;5034124;28;20036;-86
2022/07/08 09:55:18;;;;;;;1.25;0.70;;;42.30;21.00;;;;;;5033653;28;20025;-85
2022/07/08 09:57:49;;;;;;;2.97;0.90;;;42.20;20.40;;;;;;5035338;28;20025;-85
2022/07/08 10:00:52;;;;;;;1.88;0.77;;;42.40;20.60;;;;;;5039402;28;20036;-86
2022/07/08 10:03:32;;;;;;;2.88;0.77;;;42.40;20.40;;;;;;5038502;28;20088;-86
2022/07/08 10:06:01;;;;;;;2.03;0.50;;;42.40;20.50;;;;;;5037617;28;20030;-84
2022/07/08 10:08:45;;;;;;;2.13;0.52;;;42.40;20.20;;;;;;5043156;28;20036;-85
2022/07/08 10:11:13;;;;;;;2.70;0.82;;;42.40;20.90;;;;;;5051458;28;20029;-83
2022/07/08 10:13:42;;;;;;;;;;;42.30;20.40;;;;;;5044640;28;20490;-84
2022/07/08 10:17:03;;;;;;;2.33;0.75;;;41.90;20.70;;;;;;5054033;28;19912;-85
2022/07/08 10:19:33;;;;;;;2.10;0.82;;;42.00;20.70;;;;;;5047376;28;20056;-84
2022/07/08 10:22:01;;;;;;;4.25;0.88;;;42.00;21.20;;;;;;5045855;28;20021;-83
2022/07/08 10:24:32;;;;;;;2.50;1.05;;;42.00;20.60;;;;;;5043860;28;20033;-89
2022/07/08 10:27:04;;;;;;;2.65;0.80;;;41.80;20.30;;;;;;5040058;28;20092;-84
2022/07/08 10:29:36;;;;;;;3.13;1.38;;;41.40;20.20;;;;;;5050832;28;20036;-85
2022/07/08 10:32:02;;;;;;;2.92;1.10;;;40.60;21.00;;;;;;5049245;28;20506;-88
2022/07/08 10:34:33;;;;;;;12.88;9.45;;;40.30;21.70;;;;;;5038414;28;20030;-86
2022/07/08 10:37:00;;;;;;;2.65;1.15;;;40.20;21.60;;;;;;5055649;28;20029;-85
2022/07/08 10:39:40;;;;;;;2.47;0.90;;;39.80;23.10;;;;;;5054624;28;20649;-89
2022/07/08 10:42:08;;;;;;;4.43;2.83;;;39.60;22.50;;;;;;5044388;28;20310;-85
2022/07/08 10:44:43;;;;;;;4.07;2.60;;;38.80;22.90;;;;;;5043325;28;20025;-82
2022/07/08 10:47:12;;;;;;;4.03;3.00;;;37.90;24.20;;;;;;5041993;28;20034;-89
2022/07/08 10:49:42;;;;;;;2.22;1.13;;;37.20;25.00;;;;;;5039206;28;20052;-90
2022/07/08 10:52:08;;;;;;;2.90;1.20;;;36.30;25.30;;;;;;5059390;28;20026;-89
2022/07/08 10:54:37;;;;;;;3.33;0.60;;;35.50;26.40;;;;;;5051134;28;20033;-91
2022/07/08 10:57:27;;;;;;;1.75;0.75;;;34.90;27.20;;;;;;5053840;28;20078;-84
2022/07/08 11:00:10;;;;;;;3.90;0.85;;;34.30;28.20;;;;;;5052669;28;20025;-86
2022/07/08 11:02:44;;;;;;;2.03;0.70;;;34.00;28.50;;;;;;5053726;28;20049;-85
2022/07/08 11:05:54;;;;;;;5.70;1.10;;;33.70;29.60;;;;;;5054063;28;20159;-85
2022/07/08 11:08:20;;;;;;;1.98;0.75;;;33.30;29.60;;;;;;5035578;28;20181;-86
2022/07/08 11:10:51;;;;;;;2.63;0.70;;;33.10;30.20;;;;;;5035972;28;20021;-82
2022/07/08 11:13:19;;;;;;;3.15;0.65;;;32.90;31.00;;;;;;5054072;28;20056;-91
2022/07/08 11:15:45;;;;;;;0.85;0.50;;;32.80;31.00;;;;;;5048899;28;20041;-84
2022/07/08 11:18:10;;;;;;;3.03;0.90;;;32.80;31.00;;;;;;5048473;28;20487;-77
2022/07/08 11:20:36;;;;;;;1.90;0.93;;;32.60;30.80;;;;;;5047694;28;20100;-79
2022/07/08 11:23:07;;;;;;;3.40;0.90;;;32.30;31.20;;;;;;5043039;28;20025;-83
2022/07/08 11:25:33;;;;;;;5.53;1.15;;;32.20;31.90;;;;;;5040741;28;20037;-89
2022/07/08 11:28:00;;;;;;;4.40;1.13;;;32.10;31.50;;;;;;5039360;28;20076;-81
2022/07/08 11:30:30;;;;;;;2.00;0.90;;;31.80;32.40;;;;;;5038655;28;20036;-80
2022/07/08 11:32:56;;;;;;;4.45;0.90;;;31.40;32.40;;;;;;5043266;28;20026;-82
2022/07/08 11:35:23;;;;;;;3.78;0.90;;;31.30;32.60;;;;;;5038512;28;20029;-80
2022/07/08 11:37:48;;;;;;;2.42;0.68;;;31.30;32.20;;;;;;5039218;28;20033;-81
2022/07/08 11:40:18;;;;;;;2.47;0.80;;;31.40;33.50;;;;;;5040180;28;20037;-81
2022/07/08 11:42:44;;;;;;;2.80;1.17;;;31.50;33.10;;;;;;5040747;28;20514;-82
2022/07/08 11:45:12;;;;;;;1.67;0.70;;;31.30;33.90;;;;;;5040693;28;20412;-82
2022/07/08 11:47:39;;;;;;;1.73;0.75;;;31.40;33.30;;;;;;5040526;28;20075;-81
2022/07/08 11:50:08;;;;;;;3.28;1.02;;;31.30;32.70;;;;;;5041284;28;20057;-82
2022/07/08 11:52:34;;;;;;;2.28;1.02;;;31.00;33.30;;;;;;5040738;28;20022;-81
2022/07/08 11:54:59;;;;;;;2.53;1.10;;;30.80;33.40;;;;;;5039251;28;20033;-81
2022/07/08 11:57:25;;;;;;;2.55;0.82;;;30.80;33.30;;;;;;5040818;28;20026;-80
2022/07/08 11:59:51;;;;;;;2.72;0.90;;;30.80;33.60;;;;;;5041807;28;20404;-81
2022/07/08 12:02:23;;;;;;;3.17;0.90;;;30.80;34.30;;;;;;5045693;28;20025;-82
2022/07/08 12:04:50;;;;;;;1.20;0.68;;;30.70;33.50;;;;;;5045642;28;20037;-81
2022/07/08 12:07:24;;;;;;;1.67;0.80;;;30.70;33.60;;;;;;5046556;28;20108;-82
2022/07/08 12:09:55;;;;;;;2.42;0.90;;;30.80;34.30;;;;;;5042740;28;20037;-81
2022/07/08 12:12:23;;;;;;;1.10;0.70;;;30.80;34.10;;;;;;5045773;28;20565;-82
2022/07/08 12:14:49;;;;;;;2.92;0.90;;;30.60;34.00;;;;;;5043832;28;20029;-84
2022/07/08 12:17:25;;;;;;;3.92;1.10;;;30.70;34.40;;;;;;5051503;28;20078;-84
2022/07/08 12:19:53;;;;;;;4.25;1.05;;;30.80;35.70;;;;;;5041004;28;20092;-80
2022/07/08 12:22:45;;;;;;;2.28;1.00;;;30.70;34.30;;;;;;5050186;28;20009;-82
2022/07/08 12:25:15;;;;;;;2.55;0.90;;;30.70;34.30;;;;;;5042105;28;20029;-82
2022/07/08 12:27:42;;;;;;;2.90;1.10;;;30.60;34.70;;;;;;5040368;28;20025;-80
2022/07/08 12:30:08;;;;;;;2.38;1.13;;;30.50;34.10;;;;;;5037680;28;20030;-90
2022/07/08 12:32:42;;;;;;;2.63;1.17;;;30.50;34.80;;;;;;5036460;28;20403;-88
2022/07/08 12:35:09;;;;;;;2.10;1.10;;;30.40;34.20;;;;;;5047876;28;20414;-86
2022/07/08 12:37:36;;;;;;;2.42;1.00;;;30.40;34.70;;;;;;5041141;28;20109;-88
2022/07/08 12:40:18;;;;;;;2.33;1.27;;;30.40;34.70;;;;;;5040547;28;20029;-85
2022/07/08 12:43:03;;;;;;;2.60;0.95;;;30.30;34.50;;;;;;5056243;28;20036;-86
2022/07/08 12:45:29;;;;;;;1.63;0.95;;;30.40;34.70;;;;;;5057175;28;20029;-86
2022/07/08 12:47:55;;;;;;;1.35;0.75;;;30.40;35.00;;;;;;5043161;28;20041;-86
2022/07/08 12:50:21;;;;;;;2.22;1.13;;;30.40;34.90;;;;;;5037398;28;20089;-88
2022/07/08 12:52:47;;;;;;;1.80;0.75;;;30.40;34.00;;;;;;5044952;28;20029;-88
2022/07/08 12:55:13;;;;;;;1.63;0.93;;;30.40;33.10;;;;;;5041742;28;20041;-85
2022/07/08 12:57:39;;;;;;;1.90;0.82;;;30.30;32.90;;;;;;5036628;28;20810;-86
2022/07/08 13:00:05;;;;;;;5.50;1.95;;;30.40;33.30;;;;;;5040599;28;20059;-86
2022/07/08 13:02:31;;;;;;;1.70;0.90;;;30.40;33.80;;;;;;5055481;28;20031;-86
2022/07/08 13:04:56;;;;;;;4.35;1.20;;;30.50;34.20;;;;;;5055185;28;20028;-89
2022/07/08 13:07:22;;;;;;;2.33;0.98;;;30.40;34.40;;;;;;5053718;28;20368;-89
2022/07/08 13:09:48;;;;;;;2.67;1.20;;;30.30;34.30;;;;;;5051216;28;20033;-89